Time;durP1;ratioP1;P1;durP2;ratioP2;P2;SDS_P1;SDS_P2;PMS_P1;PMS_P2;Temp;Humidity;BMP_temperature;BMP_pressure;BME280_temperature;BME280_humidity;BME280_pressure;Samples;Min_cycle;Max_cycle;Signal;HPM_P1;HPM_P2
2021/04/15 00:01:14;;;;;;;5.60;3.60;;;;;;;3.54;83.56;100715.08;105455;1108;77521;-60
2021/04/15 00:03:22;;;;;;;5.30;3.40;;;;;;;3.49;83.53;100707.45;104767;1111;78160;-60
2021/04/15 00:05:31;;;;;;;4.10;3.40;;;;;;;3.51;83.68;100702.00;105438;1108;77989;-60
2021/04/15 00:07:36;;;;;;;3.60;3.20;;;;;;;3.47;83.64;100708.58;105449;1107;78448;-61
2021/04/15 00:09:41;;;;;;;5.60;3.70;;;;;;;3.48;83.48;100699.59;105440;1108;77272;-60
2021/04/15 00:11:47;;;;;;;5.30;4.40;;;;;;;3.49;83.73;100703.93;105437;1107;79533;-60
2021/04/15 00:13:56;;;;;;;5.80;3.70;;;;;;;3.49;83.71;100703.93;105470;1108;78091;-60
2021/04/15 00:16:02;;;;;;;6.00;4.90;;;;;;;3.50;83.53;100694.95;105406;1108;79398;-60
2021/04/15 00:18:07;;;;;;;6.70;5.50;;;;;;;3.55;83.92;100701.57;105522;1108;78736;-63
2021/04/15 00:20:14;;;;;;;4.90;3.70;;;;;;;3.51;83.76;100699.33;105456;1102;78443;-63
2021/04/15 00:22:22;;;;;;;5.30;4.50;;;;;;;3.46;83.88;100706.91;105469;1108;77881;-63
2021/04/15 00:24:27;;;;;;;5.70;3.80;;;;;;;3.46;83.68;100699.71;104756;1110;77184;-63
2021/04/15 00:26:32;;;;;;;6.60;3.90;;;;;;;3.47;83.88;100697.89;105445;1108;79491;-64
2021/04/15 00:28:38;;;;;;;5.20;3.40;;;;;;;3.42;83.79;100700.98;104746;1111;78396;-63
2021/04/15 00:30:43;;;;;;;5.50;3.40;;;;;;;3.43;83.88;100697.31;104730;1111;77846;-64
2021/04/15 00:32:48;;;;;;;5.70;3.60;;;;;;;3.48;83.62;100702.27;105458;1108;78495;-58
2021/04/15 00:34:53;;;;;;;5.30;3.40;;;;;;;3.46;83.82;100693.55;104794;1111;77980;-58
2021/04/15 00:36:58;;;;;;;6.20;3.70;;;;;;;3.48;83.55;100700.44;105452;1102;78688;-58
2021/04/15 00:39:05;;;;;;;4.40;3.70;;;;;;;3.52;83.60;100698.32;105429;1108;77168;-65
2021/04/15 00:41:11;;;;;;;6.20;4.20;;;;;;;3.47;83.94;100703.23;105402;1108;77808;-64
2021/04/15 00:43:19;;;;;;;6.10;4.20;;;;;;;3.43;83.78;100696.49;105439;1107;76846;-64
2021/04/15 00:45:31;;;;;;;5.90;5.30;;;;;;;3.48;83.52;100700.44;105438;1108;78407;-65
2021/04/15 00:47:38;;;;;;;6.00;5.10;;;;;;;3.55;83.58;100690.04;105430;1108;77399;-62
2021/04/15 00:49:48;;;;;;;8.00;6.20;;;;;;;3.53;83.31;100690.19;105514;1102;77250;-64
2021/04/15 00:51:58;;;;;;;11.10;7.70;;;;;;;3.54;83.31;100694.53;105413;1108;78815;-63
2021/04/15 00:54:09;;;;;;;8.60;6.60;;;;;;;3.49;83.39;100688.77;104776;1111;78038;-62
2021/04/15 00:56:15;;;;;;;13.00;9.70;;;;;;;3.49;83.58;100688.77;104785;1111;78010;-61
2021/04/15 00:58:25;;;;;;;11.90;8.50;;;;;;;3.49;83.55;100687.91;104844;1103;79015;-60
2021/04/15 01:00:32;;;;;;;7.90;5.10;;;;;;;3.47;83.52;100688.06;104776;1110;78848;-61
2021/04/15 01:02:38;;;;;;;8.30;5.70;;;;;;;3.49;83.54;100687.91;104757;1110;77119;-60
2021/04/15 01:04:43;;;;;;;5.90;4.50;;;;;;;3.54;83.32;100693.71;104767;1111;77557;-60
2021/04/15 01:06:49;;;;;;;4.20;3.20;;;;;;;3.53;83.63;100684.00;104735;1110;77342;-60
2021/04/15 01:08:54;;;;;;;5.90;3.70;;;;;;;3.50;83.50;100684.27;104795;1110;77182;-60
2021/04/15 01:11:21;;;;;;;4.70;3.50;;;;;;;3.50;83.46;100690.46;104780;1110;79750;-60
2021/04/15 01:13:53;;;;;;;4.60;3.30;;;;;;;3.48;83.78;100683.57;104761;1110;78587;-60
2021/04/15 01:16:14;;;;;;;5.20;3.80;;;;;;;3.45;83.54;100679.35;104897;1103;78214;-59
2021/04/15 01:18:31;;;;;;;4.60;3.70;;;;;;;3.44;83.47;100676.80;104758;1110;78865;-61
2021/04/15 01:21:49;;;;;;;4.00;3.20;;;;;;;3.45;83.57;100678.50;104774;1111;78470;-61
2021/04/15 01:24:02;;;;;;;6.50;3.60;;;;;;;3.42;83.34;100682.29;104847;1110;77917;-61
2021/04/15 01:26:39;;;;;;;3.70;3.00;;;;;;;3.40;83.63;100673.58;104774;1111;78051;-61
2021/04/15 01:29:03;;;;;;;4.80;3.70;;;;;;;3.37;83.51;100681.86;104774;1111;77353;-61
2021/04/15 01:31:15;;;;;;;5.20;3.20;;;;;;;3.35;83.75;100678.46;104739;1110;78669;-61
2021/04/15 01:33:27;;;;;;;3.30;2.90;;;;;;;3.36;83.47;100669.48;104756;1110;78938;-60
2021/04/15 01:35:37;;;;;;;5.90;3.00;;;;;;;3.33;83.55;100675.09;104769;1110;78826;-59
2021/04/15 01:37:52;;;;;;;5.10;3.50;;;;;;;3.32;83.82;100676.09;104776;1111;78066;-63
2021/04/15 01:40:05;;;;;;;5.80;3.40;;;;;;;3.31;83.88;100661.04;104782;1110;78192;-63
2021/04/15 01:42:16;;;;;;;6.20;3.90;;;;;;;3.36;83.54;100657.95;104785;1110;79558;-64
2021/04/15 01:44:28;;;;;;;3.20;2.90;;;;;;;3.31;83.76;100662.86;104785;1110;77263;-58
2021/04/15 01:46:38;;;;;;;4.40;3.20;;;;;;;3.29;83.67;100655.00;104768;1110;77652;-58
2021/04/15 01:48:50;;;;;;;3.40;2.70;;;;;;;3.34;84.02;100651.91;104775;1110;77445;-58
2021/04/15 01:50:59;;;;;;;4.70;2.70;;;;;;;3.31;83.98;100653.03;104793;1110;77171;-58
2021/04/15 01:53:12;;;;;;;4.10;2.60;;;;;;;3.25;83.98;100650.05;104775;1110;78200;-63
2021/04/15 01:55:25;;;;;;;4.80;3.10;;;;;;;3.25;83.89;100652.72;104758;1111;77470;-63
2021/04/15 01:57:38;;;;;;;5.10;3.30;;;;;;;3.25;83.75;100650.05;104812;1111;78024;-62
2021/04/15 01:59:51;;;;;;;3.80;2.80;;;;;;;3.25;84.08;100650.05;104780;1110;78750;-61
2021/04/15 02:02:03;;;;;;;3.00;2.70;;;;;;;3.24;84.30;100643.86;104760;1110;79298;-61
2021/04/15 02:04:17;;;;;;;3.40;2.60;;;;;;;3.27;83.89;100651.60;104793;1111;77822;-60
2021/04/15 02:06:26;;;;;;;3.40;2.90;;;;;;;3.28;83.75;100644.44;104723;1110;78574;-59
2021/04/15 02:08:35;;;;;;;3.50;2.10;;;;;;;3.28;83.98;100647.11;104766;1110;78207;-58
2021/04/15 02:10:46;;;;;;;5.30;3.60;;;;;;;3.31;83.88;100644.17;104787;1110;78718;-58
2021/04/15 02:12:55;;;;;;;3.40;2.80;;;;;;;3.23;84.09;100636.86;104759;1110;77379;-58
2021/04/15 02:15:08;;;;;;;5.30;2.80;;;;;;;3.23;83.88;100642.19;104780;1103;77604;-58
2021/04/15 02:17:15;;;;;;;2.90;2.20;;;;;;;3.22;84.26;100639.64;104811;1110;77746;-58
2021/04/15 02:19:29;;;;;;;3.40;2.60;;;;;;;3.20;84.07;100649.63;104785;1110;78490;-57
2021/04/15 02:21:42;;;;;;;3.20;2.80;;;;;;;3.19;84.14;100634.57;104750;1111;77909;-57
2021/04/15 02:23:54;;;;;;;5.10;2.80;;;;;;;3.19;83.73;100648.77;104853;1103;77804;-62
2021/04/15 02:26:06;;;;;;;3.10;2.40;;;;;;;3.15;84.14;100636.69;104771;1110;78784;-63
2021/04/15 02:28:16;;;;;;;3.00;2.00;;;;;;;3.15;83.95;100635.84;104787;1110;78325;-57
2021/04/15 02:30:26;;;;;;;2.50;2.30;;;;;;;3.15;83.96;100643.85;104772;1110;77877;-56
2021/04/15 02:32:37;;;;;;;4.00;2.20;;;;;;;3.12;83.78;100638.78;104791;1110;78782;-56
2021/04/15 02:34:48;;;;;;;2.50;2.20;;;;;;;3.13;84.00;100633.30;104738;1109;79148;-63
2021/04/15 02:37:03;;;;;;;2.90;2.20;;;;;;;3.13;83.80;100641.30;104793;1110;79696;-64
2021/04/15 02:39:16;;;;;;;2.60;2.10;;;;;;;3.13;83.82;100633.30;104744;1110;79278;-64
2021/04/15 02:41:30;;;;;;;3.70;2.30;;;;;;;3.14;83.71;100634.14;104782;1110;79248;-64
2021/04/15 02:43:41;;;;;;;;;;;;;;;3.11;84.02;100629.92;104764;1110;77987;-64
2021/04/15 02:45:54;;;;;;;4.30;2.40;;;;;;;3.09;83.85;100628.38;104772;1110;78868;-63
2021/04/15 02:48:08;;;;;;;2.80;2.20;;;;;;;3.05;83.89;100630.46;104776;1110;78283;-56
2021/04/15 02:50:18;;;;;;;4.10;2.70;;;;;;;3.09;83.73;100621.22;104779;1111;77211;-56
2021/04/15 02:52:29;;;;;;;2.90;2.00;;;;;;;3.09;83.80;100631.05;104768;1111;77174;-57
2021/04/15 02:54:46;;;;;;;2.70;2.30;;;;;;;3.06;83.66;100628.64;104775;1111;77535;-62
2021/04/15 02:56:57;;;;;;;2.90;2.60;;;;;;;3.05;84.06;100626.97;104772;1111;78306;-62
2021/04/15 02:59:08;;;;;;;2.10;1.90;;;;;;;2.99;84.08;100631.84;104803;1111;77631;-57
2021/04/15 03:01:19;;;;;;;3.20;2.20;;;;;;;3.05;83.95;100630.46;104793;1111;77993;-57
2021/04/15 03:03:32;;;;;;;2.50;2.10;;;;;;;3.02;83.65;100629.91;104806;1111;78446;-62
2021/04/15 03:05:44;;;;;;;2.30;2.00;;;;;;;2.95;83.89;100627.77;104758;1111;78568;-62
2021/04/15 03:07:52;;;;;;;2.60;2.10;;;;;;;2.92;83.89;100627.20;104779;1111;77935;-57
2021/04/15 03:10:02;;;;;;;3.00;2.20;;;;;;;2.91;84.20;100626.34;104789;1111;78086;-57
2021/04/15 03:12:16;;;;;;;3.10;2.40;;;;;;;2.89;84.07;100617.64;104763;1111;77241;-57
2021/04/15 03:14:27;;;;;;;;;;;;;;;2.94;83.88;100626.08;104776;1111;78145;-62
2021/04/15 03:16:40;;;;;;;2.80;2.00;;;;;;;2.95;83.72;100619.77;104816;1111;78433;-61
2021/04/15 03:18:50;;;;;;;2.80;2.10;;;;;;;2.97;83.85;100619.63;104800;1111;79347;-61
2021/04/15 03:21:06;;;;;;;2.60;2.30;;;;;;;2.98;83.89;100624.84;104781;1111;78010;-60
2021/04/15 03:23:23;;;;;;;2.90;1.90;;;;;;;2.94;84.10;100626.08;104929;1103;78030;-60
2021/04/15 03:25:34;;;;;;;2.60;1.90;;;;;;;2.89;83.92;100625.64;104724;1111;78421;-61
2021/04/15 03:27:50;;;;;;;2.40;2.00;;;;;;;2.88;83.67;100621.27;104777;1111;78401;-60
2021/04/15 03:30:03;;;;;;;2.70;2.30;;;;;;;2.90;83.76;100619.34;104752;1110;78243;-62
2021/04/15 03:32:18;;;;;;;2.20;2.00;;;;;;;2.90;83.97;100619.34;104771;1111;78896;-63
2021/04/15 03:34:30;;;;;;;2.20;1.80;;;;;;;2.88;83.80;100615.94;104759;1111;77632;-63
2021/04/15 03:36:40;;;;;;;2.90;2.00;;;;;;;2.85;83.61;100623.39;104782;1111;78840;-63
2021/04/15 03:38:52;;;;;;;2.50;2.20;;;;;;;2.90;83.49;100631.83;104776;1111;77889;-63
2021/04/15 03:41:04;;;;;;;2.50;2.30;;;;;;;2.83;83.75;100623.50;104755;1111;78017;-63
2021/04/15 03:43:14;;;;;;;2.50;2.10;;;;;;;2.79;83.78;100619.44;104807;1111;78674;-63
2021/04/15 03:45:27;;;;;;;2.60;2.20;;;;;;;2.76;83.73;100625.03;104800;1111;77984;-63
2021/04/15 03:47:38;;;;;;;2.10;1.90;;;;;;;2.70;83.96;100625.56;104748;1111;78442;-64
2021/04/15 03:49:48;;;;;;;3.00;2.70;;;;;;;2.67;83.98;100628.49;104754;1111;78421;-63
2021/04/15 03:52:00;;;;;;;2.70;2.30;;;;;;;2.72;83.70;100626.27;104840;1103;78279;-64
2021/04/15 03:54:10;;;;;;;3.20;2.10;;;;;;;2.70;83.80;100627.38;104760;1111;78639;-56
2021/04/15 03:56:23;;;;;;;2.50;2.10;;;;;;;2.71;83.65;100629.94;104749;1111;79278;-56
2021/04/15 03:58:37;;;;;;;3.20;2.20;;;;;;;2.69;83.76;100629.20;104733;1111;79156;-63
2021/04/15 04:00:49;;;;;;;2.40;2.20;;;;;;;2.69;83.91;100631.86;104738;1111;77741;-63
2021/04/15 04:02:59;;;;;;;3.50;2.70;;;;;;;2.69;83.74;100626.53;104763;1111;77484;-63
2021/04/15 04:05:11;;;;;;;2.70;2.20;;;;;;;2.68;83.70;100632.02;104795;1111;77087;-63
2021/04/15 04:07:24;;;;;;;2.30;2.00;;;;;;;2.66;83.63;100629.49;104782;1111;79234;-63
2021/04/15 04:09:37;;;;;;;2.70;2.00;;;;;;;2.67;83.58;100631.16;104751;1111;78306;-63
2021/04/15 04:11:46;;;;;;;2.30;1.90;;;;;;;2.69;84.06;100629.20;104798;1111;77695;-63
2021/04/15 04:13:59;;;;;;;2.10;1.80;;;;;;;2.68;83.99;100626.68;104864;1103;77323;-56
2021/04/15 04:16:17;;;;;;;4.00;2.60;;;;;;;2.74;83.59;100636.81;104766;1111;78732;-57
2021/04/15 04:18:28;;;;;;;2.90;2.10;;;;;;;2.72;83.92;100625.45;104808;1111;77941;-63
2021/04/15 04:20:36;;;;;;;3.00;2.30;;;;;;;2.72;83.98;100636.12;104772;1111;78563;-63
2021/04/15 04:22:50;;;;;;;3.80;2.00;;;;;;;2.72;83.67;100633.45;104760;1111;78252;-56
2021/04/15 04:24:59;;;;;;;;;;;;;;;2.68;83.87;100630.20;104724;1110;78468;-56
2021/04/15 04:27:12;;;;;;;2.40;1.90;;;;;;;2.69;84.03;100634.53;104816;1111;78808;-56
2021/04/15 04:29:29;;;;;;;2.50;1.80;;;;;;;2.68;84.16;100630.20;104784;1111;78426;-56
2021/04/15 04:31:41;;;;;;;3.50;2.00;;;;;;;2.68;84.09;100629.34;104896;1100;78333;-56
2021/04/15 04:33:53;;;;;;;2.30;1.60;;;;;;;2.68;84.18;100632.86;104887;1103;77778;-64
2021/04/15 04:35:59;;;;;;;3.40;1.90;;;;;;;2.73;83.99;100638.64;104775;1111;76629;-64
2021/04/15 04:38:07;;;;;;;2.20;1.70;;;;;;;2.72;84.28;100630.78;104786;1111;77703;-64
2021/04/15 04:40:20;;;;;;;2.50;2.00;;;;;;;2.74;84.01;100640.34;104784;1111;78129;-63
2021/04/15 04:42:34;;;;;;;2.80;1.70;;;;;;;2.78;84.10;100635.55;104748;1110;77458;-63
2021/04/15 04:44:44;;;;;;;2.60;2.20;;;;;;;2.80;83.92;100637.11;104823;1111;78054;-62
2021/04/15 04:46:53;;;;;;;2.20;1.90;;;;;;;2.80;84.00;100644.30;104785;1111;78763;-63
2021/04/15 04:49:10;;;;;;;3.10;2.00;;;;;;;2.84;84.08;100630.54;104783;1111;78774;-64
2021/04/15 04:51:20;;;;;;;2.40;2.00;;;;;;;2.96;83.99;100633.97;104759;1111;78761;-64
2021/04/15 04:53:28;;;;;;;3.00;2.20;;;;;;;2.98;83.96;100638.19;104788;1110;78044;-57
2021/04/15 04:55:41;;;;;;;2.10;1.80;;;;;;;2.98;83.85;100630.17;104791;1110;78113;-56
2021/04/15 04:57:46;;;;;;;2.10;1.80;;;;;;;2.97;83.93;100635.63;104779;1110;78766;-56
2021/04/15 04:59:59;;;;;;;2.10;1.60;;;;;;;2.96;83.95;100624.14;104774;1111;78700;-56
2021/04/15 05:02:05;;;;;;;1.90;1.40;;;;;;;2.96;83.87;100628.63;104780;1111;79533;-57
2021/04/15 05:04:12;;;;;;;1.80;1.10;;;;;;;2.95;83.81;100624.26;104746;1110;78030;-63
2021/04/15 05:06:25;;;;;;;2.00;1.30;;;;;;;2.92;83.98;100633.38;104799;1111;77825;-63
2021/04/15 05:08:43;;;;;;;1.70;1.40;;;;;;;2.96;84.21;100624.14;104798;1111;76703;-63
2021/04/15 05:10:53;;;;;;;1.70;1.40;;;;;;;3.01;83.88;100628.21;104735;1110;78294;-62
2021/04/15 05:13:14;;;;;;;2.60;1.80;;;;;;;3.05;84.01;100626.97;104768;1111;77407;-58
2021/04/15 05:15:19;;;;;;;1.60;1.20;;;;;;;3.11;83.93;100623.73;104784;1110;79305;-58
2021/04/15 05:17:31;;;;;;;2.60;1.20;;;;;;;3.13;83.92;100624.47;104762;1103;79065;-57
2021/04/15 05:19:37;;;;;;;2.30;1.20;;;;;;;3.19;83.96;100624.75;104745;1110;77794;-63
2021/04/15 05:21:44;;;;;;;1.50;1.40;;;;;;;3.22;84.07;100620.95;104758;1110;77742;-63
2021/04/15 05:23:59;;;;;;;1.50;1.10;;;;;;;3.26;83.79;100619.72;104774;1110;77516;-57
2021/04/15 05:26:15;;;;;;;1.40;1.00;;;;;;;3.24;83.80;100619.84;104878;1101;77729;-57
2021/04/15 05:28:22;;;;;;;1.00;0.90;;;;;;;3.26;83.87;100619.72;104741;1110;78417;-63
2021/04/15 05:30:40;;;;;;;1.00;0.90;;;;;;;3.30;83.78;100616.63;104815;1111;77052;-63
2021/04/15 05:32:48;;;;;;;1.70;1.20;;;;;;;3.35;83.90;100616.23;104817;1111;77658;-59
2021/04/15 05:34:56;;;;;;;1.40;1.00;;;;;;;3.36;83.79;100621.42;104787;1111;77442;-59
2021/04/15 05:37:09;;;;;;;1.50;1.20;;;;;;;3.38;83.89;100621.27;104708;1110;77462;-59
2021/04/15 05:39:18;;;;;;;1.30;1.00;;;;;;;3.39;83.78;100612.28;104735;1110;78126;-59
2021/04/15 05:41:30;;;;;;;1.70;1.10;;;;;;;3.38;83.80;100619.45;104800;1110;77334;-59
2021/04/15 05:43:43;;;;;;;1.90;1.40;;;;;;;3.41;83.86;100619.17;104825;1110;77749;-61
2021/04/15 05:45:57;;;;;;;1.10;0.80;;;;;;;3.46;83.96;100618.78;104726;1110;77503;-61
2021/04/15 05:48:06;;;;;;;1.80;1.30;;;;;;;3.45;83.97;100619.75;104775;1111;78445;-61
2021/04/15 05:50:19;;;;;;;2.40;1.60;;;;;;;3.46;83.85;100616.92;104778;1110;78266;-61
2021/04/15 05:52:29;;;;;;;2.10;1.50;;;;;;;3.47;83.90;100620.45;104773;1110;78236;-61
2021/04/15 05:54:38;;;;;;;2.30;1.90;;;;;;;3.53;84.01;100619.90;104780;1106;76849;-62
2021/04/15 05:56:59;;;;;;;2.00;1.60;;;;;;;3.57;83.71;100614.13;104784;1110;78211;-63
2021/04/15 05:59:17;;;;;;;2.00;1.50;;;;;;;3.63;84.01;100612.73;104700;1110;78166;-56
2021/04/15 06:01:32;;;;;;;2.30;1.50;;;;;;;3.69;83.84;100614.84;104719;1111;78841;-56
2021/04/15 06:03:51;;;;;;;2.70;1.70;;;;;;;3.72;83.80;100613.72;104877;1101;78240;-63
2021/04/15 06:06:06;;;;;;;2.40;1.80;;;;;;;3.74;83.99;100617.94;104763;1110;78514;-64
2021/04/15 06:08:12;;;;;;;2.30;1.30;;;;;;;3.78;83.94;100611.34;104757;1110;80004;-64
2021/04/15 06:10:22;;;;;;;3.30;1.70;;;;;;;3.80;83.91;100613.86;104769;1111;78262;-63
2021/04/15 06:12:44;;;;;;;3.50;1.70;;;;;;;3.77;84.06;100608.80;104753;1110;78461;-63
2021/04/15 06:14:54;;;;;;;2.40;1.70;;;;;;;3.86;83.89;100608.80;104812;1110;76716;-56
2021/04/15 06:17:23;;;;;;;2.40;1.90;;;;;;;3.92;83.78;100608.25;104775;1111;78768;-56
2021/04/15 06:19:31;;;;;;;2.60;1.90;;;;;;;4.01;84.05;100609.23;104778;1110;77321;-63
2021/04/15 06:21:45;;;;;;;3.10;2.10;;;;;;;4.02;83.77;100601.05;104769;1110;78414;-65
2021/04/15 06:23:59;;;;;;;2.20;1.80;;;;;;;4.13;83.90;100606.25;104752;1111;77815;-63
2021/04/15 06:26:06;;;;;;;2.40;1.90;;;;;;;4.21;83.86;100604.67;104779;1110;78257;-63
2021/04/15 06:28:17;;;;;;;2.10;1.90;;;;;;;4.25;83.79;100600.73;104800;1110;77176;-58
2021/04/15 06:30:29;;;;;;;2.00;1.80;;;;;;;4.26;83.81;100605.11;104807;1110;77281;-57
2021/04/15 06:32:42;;;;;;;2.50;1.90;;;;;;;4.29;83.75;100597.62;104777;1110;79096;-60
2021/04/15 06:34:47;;;;;;;2.70;2.00;;;;;;;4.36;83.80;100595.22;104731;1111;77956;-57
2021/04/15 06:37:02;;;;;;;2.40;2.20;;;;;;;4.36;83.95;100596.08;104765;1111;78859;-57
2021/04/15 06:39:23;;;;;;;2.40;1.80;;;;;;;4.36;83.98;100595.22;104769;1110;78195;-64
2021/04/15 06:42:06;;;;;;;2.00;1.80;;;;;;;4.37;84.07;100602.27;104742;1109;78694;-62
2021/04/15 06:44:39;;;;;;;2.70;2.30;;;;;;;4.44;83.77;100598.02;104831;1106;76916;-63
2021/04/15 06:49:19;;;;;;;3.40;2.20;;;;;;;4.48;83.83;100596.72;104796;1110;79158;-60
2021/04/15 06:51:46;;;;;;;2.30;1.80;;;;;;;4.53;83.91;100597.16;104761;1110;76788;-62
2021/04/15 06:54:20;;;;;;;3.80;2.40;;;;;;;4.59;84.00;100592.04;105342;1107;78800;-63
2021/04/15 06:56:42;;;;;;;4.00;2.20;;;;;;;4.60;83.73;100603.59;105361;1108;78515;-63
2021/04/15 06:59:42;;;;;;;3.30;2.10;;;;;;;4.59;83.95;100602.74;105369;1108;78979;-61
2021/04/15 07:02:04;;;;;;;3.60;2.50;;;;;;;4.70;83.56;100599.88;105181;1108;77374;-72
2021/04/15 07:04:20;;;;;;;5.30;3.20;;;;;;;4.74;83.67;100601.30;105413;1108;77584;-58
2021/04/15 07:06:50;;;;;;;3.70;2.40;;;;;;;4.72;83.58;100605.92;105432;1108;76776;-60
2021/04/15 07:09:36;;;;;;;3.20;2.10;;;;;;;4.70;83.66;100607.06;105454;1108;79959;-60
2021/04/15 07:11:59;;;;;;;3.10;1.90;;;;;;;4.69;83.71;100608.08;105407;1107;78303;-60
2021/04/15 07:14:03;;;;;;;3.90;2.50;;;;;;;4.74;83.71;100609.33;105461;1107;77449;-58
2021/04/15 07:16:34;;;;;;;4.80;2.40;;;;;;;4.76;83.64;100604.66;105426;1107;78623;-60
2021/04/15 07:19:17;;;;;;;2.60;1.80;;;;;;;4.81;83.70;100598.85;105457;1107;79032;-60
2021/04/15 07:22:12;;;;;;;2.70;2.10;;;;;;;4.90;83.66;100607.83;105445;1107;78603;-59
2021/04/15 07:27:06;;;;;;;3.00;2.60;;;;;;;4.92;83.49;100604.02;104890;1108;77283;-61
2021/04/15 07:29:35;;;;;;;3.00;2.10;;;;;;;4.90;83.62;100615.86;104815;1103;77821;-62
2021/04/15 07:32:05;;;;;;;3.20;2.40;;;;;;;4.94;83.71;100615.44;105474;1102;78579;-62
2021/04/15 07:34:41;;;;;;;2.80;2.10;;;;;;;4.97;83.42;100615.12;105442;1108;77568;-58
2021/04/15 07:36:45;;;;;;;2.70;2.00;;;;;;;4.99;83.38;100614.98;105486;1108;78717;-62
2021/04/15 07:39:25;;;;;;;3.50;2.00;;;;;;;4.97;83.44;100611.63;105472;1107;77233;-63
2021/04/15 07:41:46;;;;;;;2.80;2.10;;;;;;;4.95;83.58;100611.75;105277;1108;78866;-62
2021/04/15 07:44:25;;;;;;;2.30;1.70;;;;;;;4.96;83.52;100609.92;105425;1108;79506;-63
2021/04/15 07:46:45;;;;;;;4.20;2.10;;;;;;;4.95;83.53;100611.75;105441;1107;77420;-62
2021/04/15 07:49:49;;;;;;;2.00;1.70;;;;;;;5.02;83.50;100606.66;105447;1108;78713;-60
2021/04/15 07:52:27;;;;;;;2.60;1.90;;;;;;;5.01;83.58;100618.34;104777;1111;77840;-60
2021/04/15 07:55:10;;;;;;;2.80;1.90;;;;;;;5.02;83.46;100612.86;104750;1111;78358;-63
2021/04/15 07:57:38;;;;;;;3.20;1.90;;;;;;;5.04;83.50;100616.22;104761;1111;77783;-63
2021/04/15 08:00:04;;;;;;;3.30;2.40;;;;;;;5.11;83.17;100621.84;104749;1111;77814;-58
2021/04/15 08:02:28;;;;;;;3.70;2.70;;;;;;;5.15;83.23;100617.86;104781;1111;78274;-66
2021/04/15 08:05:14;;;;;;;4.80;2.20;;;;;;;5.13;83.45;100620.70;105385;1093;78173;-60
2021/04/15 08:07:46;;;;;;;3.00;2.50;;;;;;;5.20;83.32;100616.42;104860;1108;78346;-60
2021/04/15 08:10:14;;;;;;;3.60;2.50;;;;;;;5.25;83.20;100616.80;104767;1110;77567;-59
2021/04/15 08:12:55;;;;;;;4.10;2.30;;;;;;;5.32;83.43;100623.27;104735;1111;77947;-59
2021/04/15 08:15:32;;;;;;;3.00;2.30;;;;;;;5.38;83.25;100612.94;104815;1110;77107;-59
2021/04/15 08:18:03;;;;;;;3.80;2.80;;;;;;;5.41;83.38;100623.36;104787;1110;77801;-58
2021/04/15 08:20:45;;;;;;;3.60;2.90;;;;;;;5.43;83.07;100622.20;104795;1111;78517;-58
2021/04/15 08:23:17;;;;;;;3.20;2.70;;;;;;;5.35;83.13;100622.97;104746;1110;77286;-58
2021/04/15 08:25:30;;;;;;;5.60;2.90;;;;;;;5.40;83.26;100625.19;104776;1110;77478;-59
2021/04/15 08:28:16;;;;;;;4.00;3.60;;;;;;;5.45;82.88;100628.25;104764;1110;77850;-59
2021/04/15 08:30:51;;;;;;;4.60;2.50;;;;;;;5.47;83.09;100626.25;104869;1103;77125;-62
2021/04/15 08:33:18;;;;;;;4.90;3.00;;;;;;;5.47;82.96;100623.58;104800;1111;79284;-62
2021/04/15 08:35:41;;;;;;;4.20;3.50;;;;;;;5.53;83.15;100622.97;104777;1110;79158;-62
2021/04/15 08:38:06;;;;;;;4.90;3.20;;;;;;;5.53;82.99;100630.16;104800;1110;78385;-60
2021/04/15 08:40:29;;;;;;;5.40;2.80;;;;;;;5.52;83.02;100629.31;105432;1108;77014;-62
2021/04/15 08:42:56;;;;;;;4.00;3.00;;;;;;;5.53;83.10;100630.16;105424;1108;77722;-60
2021/04/15 08:45:20;;;;;;;6.40;3.40;;;;;;;5.61;82.83;100624.89;105418;1108;78336;-59
2021/04/15 08:47:47;;;;;;;4.30;2.90;;;;;;;5.63;82.77;100630.97;105435;1108;78412;-60
2021/04/15 08:50:03;;;;;;;4.60;3.30;;;;;;;5.58;82.82;100628.72;105438;1108;78462;-59
2021/04/15 08:52:34;;;;;;;4.80;3.50;;;;;;;5.59;82.96;100624.20;104803;1111;78728;-60
2021/04/15 08:54:59;;;;;;;4.20;3.00;;;;;;;5.56;82.90;100625.36;105430;1108;79420;-60
2021/04/15 08:57:24;;;;;;;3.80;2.80;;;;;;;5.58;82.82;100628.72;105427;1108;78550;-66
2021/04/15 08:59:44;;;;;;;3.30;2.30;;;;;;;5.54;82.53;100621.14;105409;1108;78089;-63
2021/04/15 09:02:04;;;;;;;3.40;3.00;;;;;;;5.64;82.79;100629.95;105475;1108;78971;-61
2021/04/15 09:04:17;;;;;;;4.80;2.80;;;;;;;5.63;82.94;100628.28;104784;1111;77144;-59
2021/04/15 09:06:33;;;;;;;4.50;3.60;;;;;;;5.65;82.74;100628.97;104776;1111;77599;-59
2021/04/15 09:09:06;;;;;;;6.00;2.90;;;;;;;5.66;82.65;100627.98;105391;1107;78237;-59
2021/04/15 09:11:20;;;;;;;3.80;2.70;;;;;;;5.69;82.75;100627.65;105384;1108;78427;-59
2021/04/15 09:13:38;;;;;;;4.50;3.00;;;;;;;5.77;82.33;100623.21;105445;1107;78359;-64
2021/04/15 09:15:55;;;;;;;5.10;3.20;;;;;;;5.70;82.40;100627.52;105431;1107;79637;-62
2021/04/15 09:18:12;;;;;;;3.50;2.60;;;;;;;5.66;82.66;100628.80;104889;1103;79048;-60
2021/04/15 09:20:24;;;;;;;3.70;3.10;;;;;;;5.75;82.44;100624.36;104759;1111;78822;-61
2021/04/15 09:23:23;;;;;;;6.30;3.90;;;;;;;5.78;82.51;100632.11;104786;1111;78469;-63
2021/04/15 09:25:44;;;;;;;7.50;5.80;;;;;;;5.78;82.58;100626.74;104796;1111;77824;-63
2021/04/15 09:28:03;;;;;;;18.40;10.90;;;;;;;5.83;82.32;100625.29;104815;1111;78677;-59
2021/04/15 09:30:21;;;;;;;16.20;10.50;;;;;;;5.89;82.71;100629.23;104793;1111;78232;-59
2021/04/15 09:33:09;;;;;;;33.70;19.10;;;;;;;5.89;82.38;100626.55;104891;1101;77030;-60
2021/04/15 09:35:35;;;;;;;49.40;30.70;;;;;;;5.86;82.24;100621.48;105523;1107;78085;-59
2021/04/15 09:38:10;;;;;;;13.90;12.30;;;;;;;5.80;82.18;100627.42;105292;1093;78879;-60
2021/04/15 09:40:40;;;;;;;8.90;8.00;;;;;;;5.76;82.53;100621.55;105430;1093;77095;-65
2021/04/15 09:43:13;;;;;;;7.60;6.90;;;;;;;5.84;82.40;100624.30;105469;1108;79441;-61
2021/04/15 09:45:39;;;;;;;8.30;7.50;;;;;;;6.02;82.36;100620.78;105118;1108;78285;-59
2021/04/15 09:48:01;;;;;;;5.40;4.10;;;;;;;6.03;82.28;100625.16;105381;1108;78774;-61
2021/04/15 09:50:23;;;;;;;5.10;4.30;;;;;;;5.97;82.44;100626.62;105443;1108;78434;-59
2021/04/15 09:52:56;;;;;;;5.90;4.60;;;;;;;5.99;82.20;100621.94;105410;1107;77978;-59
2021/04/15 09:55:17;;;;;;;5.60;5.00;;;;;;;6.12;82.19;100625.09;105435;1107;78701;-60
2021/04/15 09:57:37;;;;;;;6.30;5.80;;;;;;;6.14;82.26;100619.55;104773;1110;77571;-61
2021/04/15 10:00:21;;;;;;;4.50;4.10;;;;;;;6.17;81.87;100620.09;105467;1108;78774;-60
2021/04/15 10:02:35;;;;;;;5.70;5.00;;;;;;;6.10;82.14;100620.88;105423;1108;78169;-60
2021/04/15 10:04:54;;;;;;;5.60;4.70;;;;;;;6.14;82.32;100625.77;105461;1108;78872;-60
2021/04/15 10:07:05;;;;;;;6.70;6.10;;;;;;;6.19;81.98;100625.29;105408;1107;77018;-61
2021/04/15 10:09:40;;;;;;;11.30;10.20;;;;;;;6.19;82.11;100622.60;105440;1108;78571;-61
2021/04/15 10:12:12;;;;;;;6.50;5.30;;;;;;;6.20;82.05;100626.98;105434;1108;78244;-59
2021/04/15 10:14:48;;;;;;;5.20;4.50;;;;;;;6.11;82.19;100625.22;105444;1108;78397;-59
2021/04/15 10:17:12;;;;;;;6.20;5.40;;;;;;;6.08;81.91;100637.11;105431;1108;77977;-62
2021/04/15 10:19:53;;;;;;;3.90;3.50;;;;;;;6.12;82.08;100632.28;105373;1107;78566;-63
2021/04/15 10:22:08;;;;;;;6.20;3.40;;;;;;;6.04;82.21;100633.06;105440;1107;77616;-61
2021/04/15 10:24:37;;;;;;;7.30;6.40;;;;;;;6.01;81.73;100629.84;105436;1108;78802;-61
2021/04/15 10:27:44;;;;;;;3.80;3.30;;;;;;;6.04;81.78;100638.43;105131;1108;78395;-58
2021/04/15 10:30:30;;;;;;;7.10;5.60;;;;;;;6.06;81.98;100632.89;104726;1110;78052;-59
2021/04/15 10:33:17;;;;;;;7.60;6.70;;;;;;;6.05;82.28;100628.52;104877;1114;78771;-61
2021/04/15 10:35:52;;;;;;;8.40;6.90;;;;;;;6.03;81.91;100628.69;104872;1103;77309;-60
2021/04/15 10:40:51;;;;;;;17.10;11.90;;;;;;;6.09;82.06;100622.71;105271;1108;77493;-62
2021/04/15 10:43:58;;;;;;;9.60;8.40;;;;;;;6.14;82.20;100633.81;104777;1111;79216;-61
2021/04/15 10:46:27;;;;;;;12.40;10.10;;;;;;;6.12;81.98;100632.28;104857;1111;80186;-61
2021/04/15 10:48:44;;;;;;;9.80;7.40;;;;;;;6.23;81.68;100630.20;104804;1111;77373;-63